Time;durP1;ratioP1;P1;durP2;ratioP2;P2;SDS_P1;SDS_P2;PMS_P1;PMS_P2;Temp;Humidity;BMP_temperature;BMP_pressure;BME280_temperature;BME280_humidity;BME280_pressure;Samples;Min_cycle;Max_cycle;Signal;HPM_P1;HPM_P2
2024/01/03 00:00:18;;;;;;;39.88;6.45;;;11.30;99.90;;;;;;4955704;28;38128;-77
2024/01/03 00:02:48;;;;;;;42.93;6.37;;;11.30;99.90;;;;;;4985565;28;38714;-77
2024/01/03 00:05:14;;;;;;;37.67;6.40;;;11.30;99.90;;;;;;4954162;28;37784;-77
2024/01/03 00:07:44;;;;;;;44.27;6.97;;;11.30;99.90;;;;;;4950759;28;39017;-77
2024/01/03 00:10:40;;;;;;;44.23;7.07;;;11.30;99.90;;;;;;4976950;28;38821;-76
2024/01/03 00:13:34;;;;;;;45.63;6.80;;;11.30;99.90;;;;;;4959115;28;40360;-76
2024/01/03 00:16:06;;;;;;;38.67;6.30;;;11.30;99.90;;;;;;4962883;28;43172;-75
2024/01/03 00:18:38;;;;;;;41.55;6.45;;;11.30;99.90;;;;;;4965723;28;48644;-77
2024/01/03 00:21:10;;;;;;;32.60;5.97;;;11.30;99.90;;;;;;4980012;28;37355;-77
2024/01/03 00:23:50;;;;;;;46.63;7.55;;;11.30;99.90;;;;;;4949879;28;40350;-77
2024/01/03 00:26:17;;;;;;;40.20;6.30;;;11.30;99.90;;;;;;4962407;28;37347;-77
2024/01/03 00:28:44;;;;;;;42.23;6.60;;;11.30;99.90;;;;;;4949014;28;36770;-77
2024/01/03 00:31:37;;;;;;;53.43;7.17;;;11.30;99.90;;;;;;4952994;28;39278;-77
2024/01/03 00:34:09;;;;;;;49.40;7.90;;;11.30;99.90;;;;;;4961545;28;38571;-77
2024/01/03 00:36:35;;;;;;;42.60;7.20;;;11.40;99.90;;;;;;4958038;28;39398;-77
2024/01/03 00:39:01;;;;;;;52.10;7.93;;;11.40;99.90;;;;;;4964011;28;38979;-78
2024/01/03 00:41:27;;;;;;;39.53;6.60;;;11.40;99.90;;;;;;4950894;28;37880;-77
2024/01/03 00:43:54;;;;;;;42.63;6.57;;;11.40;99.90;;;;;;4971638;28;39128;-77
2024/01/03 00:46:20;;;;;;;45.17;7.97;;;11.40;99.90;;;;;;4962317;28;39785;-78
2024/01/03 00:48:46;;;;;;;44.43;7.53;;;11.40;99.90;;;;;;4966693;28;38834;-77
2024/01/03 00:51:12;;;;;;;45.83;7.97;;;11.40;99.90;;;;;;4964577;28;37504;-77
2024/01/03 00:53:38;;;;;;;33.87;6.47;;;11.40;99.90;;;;;;4949080;28;41421;-78
2024/01/03 00:56:05;;;;;;;42.83;6.90;;;11.40;99.90;;;;;;4965684;28;39296;-77
2024/01/03 00:58:31;;;;;;;39.80;7.43;;;11.40;99.90;;;;;;4952177;28;38331;-77
2024/01/03 01:00:58;;;;;;;45.23;7.00;;;11.40;99.90;;;;;;4967859;28;37827;-77
2024/01/03 01:03:24;;;;;;;49.17;8.07;;;11.40;99.90;;;;;;4969240;28;39069;-77
2024/01/03 01:05:50;;;;;;;42.00;6.90;;;11.40;99.90;;;;;;4970736;28;39481;-78
2024/01/03 01:08:16;;;;;;;47.38;7.50;;;11.40;99.90;;;;;;4968898;28;38774;-77
2024/01/03 01:10:42;;;;;;;39.97;6.72;;;11.40;99.90;;;;;;4970255;28;36972;-78
2024/01/03 01:13:09;;;;;;;44.97;7.32;;;11.40;99.90;;;;;;4955941;28;39497;-77
2024/01/03 01:15:35;;;;;;;41.03;6.50;;;11.40;99.90;;;;;;4945681;28;38350;-78
2024/01/03 01:18:01;;;;;;;43.20;6.22;;;11.40;99.90;;;;;;4968004;28;38201;-77
2024/01/03 01:20:27;;;;;;;42.00;7.30;;;11.40;99.90;;;;;;4951857;28;47350;-77
2024/01/03 01:22:53;;;;;;;37.30;5.67;;;11.40;99.90;;;;;;4951521;28;37657;-78
2024/01/03 01:25:19;;;;;;;41.97;6.70;;;11.30;99.90;;;;;;4968072;28;39223;-78
2024/01/03 01:27:45;;;;;;;39.60;6.70;;;11.30;99.90;;;;;;4946811;28;38907;-78
2024/01/03 01:30:11;;;;;;;33.23;6.03;;;11.30;99.90;;;;;;4950339;28;37402;-78
2024/01/03 01:32:37;;;;;;;35.20;5.73;;;11.30;99.90;;;;;;4954741;28;37954;-77
2024/01/03 01:35:04;;;;;;;41.60;7.20;;;11.30;99.90;;;;;;4956098;28;38105;-77
2024/01/03 01:37:30;;;;;;;33.90;6.03;;;11.20;99.90;;;;;;4949976;28;47727;-77
2024/01/03 01:39:56;;;;;;;45.87;6.67;;;11.20;99.90;;;;;;4952649;28;36892;-77
2024/01/03 01:42:30;;;;;;;47.40;6.40;;;11.10;99.90;;;;;;4982508;28;37957;-77
2024/01/03 01:44:57;;;;;;;43.90;6.23;;;11.00;99.90;;;;;;4965079;28;39550;-78
2024/01/03 01:47:24;;;;;;;33.13;5.63;;;11.00;99.90;;;;;;4968946;28;37917;-77
2024/01/03 01:49:52;;;;;;;37.63;5.83;;;11.00;99.90;;;;;;4966604;28;37272;-77
2024/01/03 01:52:20;;;;;;;38.17;6.17;;;11.00;99.90;;;;;;4949580;28;37988;-78
2024/01/03 01:54:47;;;;;;;34.00;5.77;;;11.10;99.90;;;;;;4944835;28;40004;-77
2024/01/03 01:57:14;;;;;;;28.03;5.00;;;11.10;99.90;;;;;;4943166;28;38419;-77
2024/01/03 01:59:42;;;;;;;30.77;5.30;;;11.10;99.90;;;;;;4943087;28;37695;-77
2024/01/03 02:04:44;;;;;;;35.23;5.97;;;11.10;99.90;;;;;;4321189;26;20053;-77
2024/01/03 02:07:10;;;;;;;38.93;7.27;;;11.20;99.90;;;;;;5004156;28;36730;-77
2024/01/03 02:09:36;;;;;;;39.93;5.83;;;11.20;99.90;;;;;;5006329;28;37625;-77
2024/01/03 02:12:03;;;;;;;37.80;5.83;;;11.10;99.90;;;;;;4989826;28;40312;-77
2024/01/03 02:14:29;;;;;;;36.03;5.67;;;11.10;99.90;;;;;;4981158;28;39826;-77
2024/01/03 02:16:55;;;;;;;31.07;6.03;;;11.20;99.90;;;;;;4978504;28;38820;-77
2024/01/03 02:19:21;;;;;;;39.23;6.03;;;11.20;99.90;;;;;;4999916;28;37040;-76
2024/01/03 02:21:47;;;;;;;38.50;6.43;;;11.20;99.90;;;;;;5004829;28;38585;-77
2024/01/03 02:24:13;;;;;;;54.23;7.10;;;11.20;99.90;;;;;;4981061;28;39568;-77
2024/01/03 02:26:39;;;;;;;47.23;8.80;;;11.20;99.90;;;;;;4986934;28;38505;-77
2024/01/03 02:29:05;;;;;;;52.60;8.03;;;11.20;99.90;;;;;;4995200;28;37297;-77
2024/01/03 02:31:32;;;;;;;46.53;7.30;;;11.20;99.90;;;;;;4974024;28;39542;-77
2024/01/03 02:33:58;;;;;;;54.43;7.30;;;11.20;99.90;;;;;;4963702;28;38790;-77
2024/01/03 02:36:24;;;;;;;51.50;7.93;;;11.20;99.90;;;;;;4981658;28;38260;-77
2024/01/03 02:38:53;;;;;;;51.90;7.87;;;11.20;99.90;;;;;;4987739;28;37058;-77
2024/01/03 02:41:19;;;;;;;57.43;7.93;;;11.20;99.90;;;;;;4992282;28;39770;-77
2024/01/03 02:43:45;;;;;;;61.83;9.30;;;11.20;99.90;;;;;;4983139;28;39096;-77
2024/01/03 02:46:11;;;;;;;50.17;8.27;;;11.20;99.90;;;;;;5000173;28;38368;-77
2024/01/03 02:48:40;;;;;;;63.10;9.23;;;11.20;99.90;;;;;;4996838;28;37342;-77
2024/01/03 02:51:06;;;;;;;64.93;10.33;;;11.30;99.90;;;;;;4998669;28;38755;-77
2024/01/03 02:53:32;;;;;;;52.07;8.40;;;11.20;99.90;;;;;;4977457;28;38483;-77
2024/01/03 02:55:58;;;;;;;60.63;9.97;;;11.20;99.90;;;;;;4997263;28;38172;-77
2024/01/03 02:58:24;;;;;;;70.87;10.23;;;11.20;99.90;;;;;;4988793;28;38151;-76
2024/01/03 03:00:51;;;;;;;57.90;9.93;;;11.20;99.90;;;;;;4989376;28;39895;-77
2024/01/03 03:03:17;;;;;;;73.13;11.17;;;11.30;99.90;;;;;;4977555;28;39026;-77
2024/01/03 03:05:43;;;;;;;64.33;9.83;;;11.30;99.90;;;;;;4991169;28;39699;-77
2024/01/03 03:08:09;;;;;;;63.27;10.03;;;11.30;99.90;;;;;;4985260;28;37770;-77
2024/01/03 03:10:35;;;;;;;50.87;8.63;;;11.30;99.90;;;;;;4996909;28;39493;-77
2024/01/03 03:13:01;;;;;;;56.90;8.13;;;11.30;99.90;;;;;;4972507;28;38825;-77
2024/01/03 03:15:27;;;;;;;57.03;8.07;;;11.30;99.90;;;;;;5002076;28;38154;-77
2024/01/03 03:17:53;;;;;;;50.93;8.30;;;11.30;99.90;;;;;;4971676;28;38643;-77
2024/01/03 03:20:20;;;;;;;40.93;7.10;;;11.20;99.90;;;;;;4989413;28;39109;-77
2024/01/03 03:22:46;;;;;;;64.30;9.37;;;11.10;99.90;;;;;;4974852;28;37571;-77
2024/01/03 03:25:12;;;;;;;54.63;9.07;;;11.10;99.90;;;;;;5000238;28;38829;-77
2024/01/03 03:27:38;;;;;;;49.60;8.80;;;11.10;99.90;;;;;;4990528;28;39073;-77
2024/01/03 03:30:05;;;;;;;54.10;8.97;;;11.10;99.90;;;;;;4988570;28;40734;-77
2024/01/03 03:32:31;;;;;;;66.30;9.50;;;11.10;99.90;;;;;;4998232;28;39888;-76
2024/01/03 03:34:57;;;;;;;72.03;9.93;;;11.00;99.90;;;;;;4987342;28;38173;-76
2024/01/03 03:37:24;;;;;;;65.40;10.47;;;11.00;99.90;;;;;;4987466;28;37844;-77
2024/01/03 03:39:50;;;;;;;56.27;8.47;;;11.10;99.90;;;;;;4987436;28;40497;-77
2024/01/03 03:42:18;;;;;;;57.23;9.00;;;11.10;99.90;;;;;;4975847;28;37945;-77
2024/01/03 03:44:44;;;;;;;55.27;9.07;;;11.10;99.90;;;;;;4989410;28;37412;-77
2024/01/03 03:47:11;;;;;;;53.47;8.70;;;11.20;99.90;;;;;;4996573;28;37285;-77
2024/01/03 03:49:37;;;;;;;52.33;8.73;;;11.20;99.90;;;;;;4987338;28;39917;-77
2024/01/03 03:52:03;;;;;;;56.13;9.10;;;11.20;99.90;;;;;;4983232;28;37941;-77
2024/01/03 03:54:29;;;;;;;49.23;7.47;;;11.30;99.90;;;;;;5002091;28;39868;-77
2024/01/03 03:56:55;;;;;;;68.23;9.60;;;11.30;99.90;;;;;;4985216;28;36335;-77
2024/01/03 03:59:21;;;;;;;53.77;7.60;;;11.30;99.90;;;;;;4997469;28;39167;-77
2024/01/03 04:01:51;;;;;;;62.53;9.00;;;11.30;99.90;;;;;;4989184;28;39706;-77
2024/01/03 04:04:20;;;;;;;59.10;9.23;;;11.30;99.90;;;;;;4986946;28;39948;-77
2024/01/03 04:06:47;;;;;;;64.27;9.07;;;11.30;99.90;;;;;;4989529;28;37908;-77
2024/01/03 04:09:16;;;;;;;54.30;8.13;;;11.30;99.90;;;;;;4975598;28;38133;-77
2024/01/03 04:11:43;;;;;;;48.50;8.10;;;11.30;99.90;;;;;;4994375;28;38907;-77
2024/01/03 04:14:10;;;;;;;52.07;7.80;;;11.30;99.90;;;;;;4983143;28;39146;-77
2024/01/03 04:16:37;;;;;;;53.90;8.13;;;11.30;99.90;;;;;;4987316;28;35671;-77
2024/01/03 04:19:03;;;;;;;60.87;8.87;;;11.30;99.90;;;;;;4975725;28;40361;-77
2024/01/03 04:21:33;;;;;;;59.10;8.53;;;11.20;99.90;;;;;;4980832;28;39157;-77
2024/01/03 04:23:59;;;;;;;50.70;8.00;;;11.20;99.90;;;;;;4973713;28;39639;-77
2024/01/03 04:26:27;;;;;;;58.53;9.87;;;11.20;99.90;;;;;;4980769;28;38436;-77
2024/01/03 04:28:53;;;;;;;59.83;7.90;;;11.20;99.90;;;;;;4980900;28;39641;-77
2024/01/03 04:31:19;;;;;;;50.00;7.83;;;11.10;99.90;;;;;;4980597;28;40368;-76
2024/01/03 04:33:45;;;;;;;50.60;7.37;;;11.10;99.90;;;;;;4985184;28;39460;-77
2024/01/03 04:36:11;;;;;;;49.97;8.57;;;11.10;99.90;;;;;;4988466;28;37113;-77
2024/01/03 04:38:37;;;;;;;45.97;6.77;;;11.20;99.90;;;;;;5001322;28;39996;-77
2024/01/03 04:41:03;;;;;;;37.03;5.77;;;11.20;99.90;;;;;;5000168;28;38796;-76
2024/01/03 04:43:30;;;;;;;35.37;4.60;;;11.20;99.90;;;;;;4990799;28;38694;-77
2024/01/03 04:45:56;;;;;;;23.73;4.50;;;11.20;99.90;;;;;;5006468;28;35777;-77
2024/01/03 04:48:22;;;;;;;20.20;4.17;;;11.20;99.90;;;;;;4992201;28;39571;-77
2024/01/03 04:50:48;;;;;;;30.60;4.90;;;11.10;99.90;;;;;;4982908;28;41684;-76
2024/01/03 04:53:14;;;;;;;27.93;4.30;;;11.10;99.90;;;;;;4977798;28;39199;-76
2024/01/03 04:55:40;;;;;;;20.43;4.17;;;11.10;99.90;;;;;;5002400;28;37386;-76
2024/01/03 04:58:07;;;;;;;27.37;4.03;;;11.10;99.90;;;;;;5000638;28;39398;-76
2024/01/03 05:00:34;;;;;;;20.63;3.60;;;11.10;99.90;;;;;;4973087;28;39957;-77
2024/01/03 05:03:00;;;;;;;27.53;5.27;;;11.00;99.90;;;;;;4966417;28;39132;-77
2024/01/03 05:05:28;;;;;;;25.53;3.87;;;11.00;99.90;;;;;;4972292;28;20062;-77
2024/01/03 05:07:56;;;;;;;22.53;3.70;;;11.00;99.90;;;;;;4996155;28;39377;-77
2024/01/03 05:10:22;;;;;;;21.03;3.90;;;11.00;99.90;;;;;;4983107;28;39117;-77
2024/01/03 05:12:48;;;;;;;28.70;4.97;;;11.00;99.90;;;;;;4995697;28;38547;-77
2024/01/03 05:15:14;;;;;;;24.23;4.37;;;11.00;99.90;;;;;;4993643;28;37479;-77
2024/01/03 05:17:41;;;;;;;18.70;3.67;;;11.00;99.90;;;;;;4972451;28;39083;-77
2024/01/03 05:20:08;;;;;;;23.10;3.73;;;11.00;99.90;;;;;;4988856;28;39999;-77
2024/01/03 05:22:34;;;;;;;26.20;3.00;;;11.00;99.90;;;;;;4983844;28;39177;-77
2024/01/03 05:25:01;;;;;;;16.23;3.13;;;11.00;99.90;;;;;;4993596;28;36301;-77
2024/01/03 05:27:27;;;;;;;24.03;4.43;;;10.90;99.90;;;;;;4992566;28;39028;-77
2024/01/03 05:29:53;;;;;;;26.30;3.97;;;10.90;99.90;;;;;;4982837;28;39677;-77
2024/01/03 05:32:19;;;;;;;20.20;3.70;;;10.90;99.90;;;;;;5004398;28;38384;-77
2024/01/03 05:34:45;;;;;;;23.43;3.30;;;10.80;99.90;;;;;;4999495;28;36976;-78
2024/01/03 05:37:11;;;;;;;16.53;2.57;;;10.80;99.90;;;;;;4991685;28;40486;-77
2024/01/03 05:39:38;;;;;;;20.73;2.97;;;10.80;99.90;;;;;;4985622;28;39497;-77
2024/01/03 05:42:04;;;;;;;22.93;3.40;;;10.80;99.90;;;;;;4997600;28;39421;-78
2024/01/03 05:44:30;;;;;;;16.57;2.50;;;10.70;99.90;;;;;;4992155;28;37014;-77
2024/01/03 05:46:56;;;;;;;14.07;2.97;;;10.80;99.90;;;;;;4987572;28;38253;-77
2024/01/03 05:49:22;;;;;;;18.43;3.30;;;10.70;99.90;;;;;;4984496;28;39071;-77
2024/01/03 05:51:49;;;;;;;26.30;3.67;;;10.70;99.90;;;;;;4978609;28;37359;-76
2024/01/03 05:54:15;;;;;;;21.70;3.57;;;10.70;99.90;;;;;;4987105;28;36318;-77
2024/01/03 05:56:41;;;;;;;22.70;4.10;;;10.70;99.90;;;;;;4985839;28;37881;-77
2024/01/03 05:59:07;;;;;;;18.47;3.80;;;10.70;99.90;;;;;;5009542;28;39576;-77
2024/01/03 06:01:33;;;;;;;12.23;2.43;;;10.70;99.90;;;;;;4997053;28;38318;-77
2024/01/03 06:03:59;;;;;;;24.17;3.20;;;10.70;99.90;;;;;;5006281;28;37060;-77
2024/01/03 06:06:25;;;;;;;18.00;2.73;;;10.80;99.90;;;;;;4994067;28;40600;-77
2024/01/03 06:08:51;;;;;;;23.50;3.07;;;10.80;99.90;;;;;;5001094;28;38542;-77
2024/01/03 06:11:17;;;;;;;16.67;3.20;;;10.70;99.90;;;;;;4987412;28;38458;-77
2024/01/03 06:13:43;;;;;;;22.03;2.90;;;10.70;99.90;;;;;;4993768;28;37583;-77
2024/01/03 06:16:12;;;;;;;11.97;2.03;;;10.70;99.90;;;;;;4995997;28;38694;-77
2024/01/03 06:18:38;;;;;;;16.50;2.67;;;10.60;99.90;;;;;;5006554;28;38449;-77
2024/01/03 06:21:10;;;;;;;18.67;3.17;;;10.50;99.90;;;;;;4975810;28;38992;-77
2024/01/03 06:23:38;;;;;;;12.55;2.33;;;10.50;99.90;;;;;;4983802;28;38129;-77
2024/01/03 06:26:06;;;;;;;13.77;2.60;;;10.50;99.90;;;;;;5001643;28;38559;-77
2024/01/03 06:28:32;;;;;;;20.27;2.17;;;10.40;99.90;;;;;;4995883;28;38570;-77
2024/01/03 06:31:00;;;;;;;12.60;2.40;;;10.40;99.90;;;;;;4979472;28;39136;-77
2024/01/03 06:33:27;;;;;;;13.07;2.23;;;10.40;99.90;;;;;;4998527;28;47345;-78
2024/01/03 06:35:54;;;;;;;17.00;1.73;;;10.30;99.90;;;;;;4988300;28;38568;-77
2024/01/03 06:38:21;;;;;;;12.70;1.87;;;10.30;99.90;;;;;;4979961;28;39014;-77
2024/01/03 06:40:48;;;;;;;18.03;2.37;;;10.30;99.90;;;;;;5000062;28;38841;-78
2024/01/03 06:43:14;;;;;;;11.40;1.93;;;10.30;99.90;;;;;;5001970;28;37221;-77
2024/01/03 06:45:41;;;;;;;15.17;2.30;;;10.30;99.90;;;;;;5000327;28;39105;-77
2024/01/03 06:48:07;;;;;;;25.97;3.83;;;10.40;99.90;;;;;;4993515;28;40861;-77
2024/01/03 06:50:33;;;;;;;19.70;2.97;;;10.40;99.90;;;;;;4993232;28;37092;-77
2024/01/03 06:53:00;;;;;;;24.87;2.30;;;10.40;99.90;;;;;;4992779;28;39003;-77
2024/01/03 06:55:26;;;;;;;19.83;2.70;;;10.40;99.90;;;;;;4998634;28;39408;-77
2024/01/03 06:57:53;;;;;;;20.47;3.40;;;10.40;99.90;;;;;;5007313;28;39292;-78
2024/01/03 07:00:19;;;;;;;12.87;2.60;;;10.50;99.90;;;;;;4985944;28;39755;-77
2024/01/03 07:02:46;;;;;;;19.47;2.40;;;10.50;99.90;;;;;;4979398;28;37390;-77
2024/01/03 07:05:12;;;;;;;25.60;4.50;;;10.50;99.90;;;;;;4993621;28;39039;-77
2024/01/03 07:07:38;;;;;;;30.20;3.27;;;10.50;99.90;;;;;;4988315;28;39378;-77
2024/01/03 07:10:05;;;;;;;29.30;3.87;;;10.60;99.90;;;;;;5002472;28;38437;-77
2024/01/03 07:12:31;;;;;;;24.17;3.27;;;10.60;99.90;;;;;;4982343;28;46974;-77
2024/01/03 07:14:57;;;;;;;27.50;4.27;;;10.60;99.90;;;;;;4992290;28;40713;-77
2024/01/03 07:17:23;;;;;;;25.87;3.67;;;10.60;99.90;;;;;;5002150;28;39176;-77
2024/01/03 07:19:49;;;;;;;29.83;4.77;;;10.60;99.90;;;;;;4989108;28;38484;-77
2024/01/03 07:22:16;;;;;;;20.97;3.20;;;10.70;99.90;;;;;;4993292;28;38262;-77
2024/01/03 07:24:42;;;;;;;36.00;3.73;;;10.70;99.90;;;;;;4997367;28;40280;-77
2024/01/03 07:27:08;;;;;;;27.87;3.90;;;10.70;99.90;;;;;;5009715;28;39588;-77
2024/01/03 07:29:34;;;;;;;23.53;3.53;;;10.70;99.90;;;;;;4994478;28;39958;-77
2024/01/03 07:32:00;;;;;;;33.37;5.07;;;10.70;99.90;;;;;;5002590;28;38045;-77
2024/01/03 07:34:27;;;;;;;31.80;5.03;;;10.70;99.90;;;;;;5013043;28;38034;-77
2024/01/03 07:36:53;;;;;;;39.67;4.87;;;10.80;99.90;;;;;;4985241;28;39568;-77
2024/01/03 07:39:20;;;;;;;32.00;5.37;;;10.80;99.90;;;;;;4997252;28;39573;-77
2024/01/03 07:41:46;;;;;;;33.83;5.00;;;10.90;99.90;;;;;;4992486;28;37087;-76
2024/01/03 07:44:12;;;;;;;22.97;4.30;;;10.90;99.90;;;;;;4999695;28;38538;-77
2024/01/03 07:46:39;;;;;;;33.03;5.10;;;10.90;99.90;;;;;;4985922;28;37504;-77
2024/01/03 07:49:05;;;;;;;41.87;7.00;;;10.90;99.90;;;;;;4986023;28;39171;-77
2024/01/03 07:51:34;;;;;;;37.00;5.23;;;10.90;99.90;;;;;;4983376;28;36582;-77
2024/01/03 07:54:02;;;;;;;37.93;5.00;;;10.90;99.90;;;;;;4990438;28;39922;-77
2024/01/03 07:56:28;;;;;;;27.03;4.30;;;11.00;99.90;;;;;;4988098;28;47174;-76
2024/01/03 07:58:54;;;;;;;34.13;4.80;;;10.90;99.90;;;;;;4986604;28;38429;-77
2024/01/03 08:01:20;;;;;;;39.73;5.77;;;11.00;99.90;;;;;;4999602;28;37081;-76
2024/01/03 08:03:47;;;;;;;42.87;6.27;;;11.00;99.90;;;;;;5002634;28;38592;-77
2024/01/03 08:06:20;;;;;;;48.83;6.53;;;11.00;99.90;;;;;;5004168;28;37746;-77
2024/01/03 08:08:46;;;;;;;41.63;5.73;;;11.00;99.90;;;;;;4972475;28;37537;-77
2024/01/03 08:11:12;;;;;;;36.30;6.37;;;11.00;99.90;;;;;;4988256;28;37198;-77
2024/01/03 08:13:38;;;;;;;37.73;5.70;;;11.00;99.90;;;;;;5002947;28;40056;-77
2024/01/03 08:16:08;;;;;;;40.40;5.70;;;11.00;99.90;;;;;;4992877;28;38415;-77
2024/01/03 08:18:34;;;;;;;41.83;6.37;;;11.00;99.90;;;;;;4985074;28;38443;-77
2024/01/03 08:21:01;;;;;;;44.73;6.77;;;11.00;99.90;;;;;;4989576;28;35953;-77
2024/01/03 08:23:28;;;;;;;45.33;5.53;;;11.00;99.90;;;;;;5001009;28;48175;-77
2024/01/03 08:25:54;;;;;;;42.60;6.37;;;11.00;99.90;;;;;;4991601;28;40079;-77
2024/01/03 08:28:20;;;;;;;36.70;5.83;;;11.00;99.90;;;;;;4996610;28;38740;-77
2024/01/03 08:30:46;;;;;;;39.43;6.00;;;11.00;99.90;;;;;;4998926;28;36968;-77
2024/01/03 08:33:12;;;;;;;36.00;5.90;;;11.00;99.90;;;;;;5006015;28;39344;-77
2024/01/03 08:35:38;;;;;;;39.77;5.40;;;11.00;99.90;;;;;;4981771;28;37514;-77
2024/01/03 08:38:04;;;;;;;44.87;6.67;;;11.00;99.90;;;;;;4986698;28;38881;-77
2024/01/03 08:40:30;;;;;;;40.67;6.00;;;10.90;99.90;;;;;;4985298;28;36308;-77
2024/01/03 08:42:59;;;;;;;37.47;6.40;;;11.00;99.90;;;;;;4976912;28;39610;-77
2024/01/03 08:45:25;;;;;;;41.13;6.33;;;10.90;99.90;;;;;;4964634;28;40013;-77
2024/01/03 08:47:51;;;;;;;39.23;5.40;;;10.90;99.90;;;;;;4987095;28;39349;-77
2024/01/03 08:50:17;;;;;;;38.53;5.43;;;10.90;99.90;;;;;;5000612;28;38254;-77
2024/01/03 08:52:44;;;;;;;43.60;5.60;;;10.90;99.90;;;;;;4990549;28;36395;-77
2024/01/03 08:55:11;;;;;;;36.00;5.37;;;10.90;99.90;;;;;;4985489;28;40262;-77
2024/01/03 08:57:37;;;;;;;34.47;5.37;;;10.80;99.90;;;;;;4998197;28;38971;-77
2024/01/03 09:00:04;;;;;;;32.57;5.47;;;10.70;99.90;;;;;;4987036;28;37471;-77
2024/01/03 09:02:30;;;;;;;34.67;5.40;;;10.60;99.90;;;;;;4991994;28;37874;-76
2024/01/03 09:04:56;;;;;;;35.20;5.67;;;10.60;99.90;;;;;;4990160;28;39547;-77
2024/01/03 09:07:22;;;;;;;40.07;5.10;;;10.50;99.90;;;;;;4987952;28;39822;-77
2024/01/03 09:09:48;;;;;;;35.50;5.10;;;10.50;99.90;;;;;;4983625;28;36120;-77
2024/01/03 09:12:16;;;;;;;30.63;4.50;;;10.50;99.90;;;;;;4998775;28;38332;-77
2024/01/03 09:14:42;;;;;;;33.57;4.53;;;10.50;99.90;;;;;;4975926;28;40350;-76
2024/01/03 09:17:08;;;;;;;35.10;4.70;;;10.50;99.90;;;;;;5003035;28;40120;-76
2024/01/03 09:19:35;;;;;;;31.77;4.50;;;10.50;99.90;;;;;;4979320;28;38013;-76
2024/01/03 09:22:02;;;;;;;33.43;5.30;;;10.50;99.90;;;;;;4978087;28;39637;-76
2024/01/03 09:24:29;;;;;;;35.33;5.17;;;10.50;99.90;;;;;;4967144;28;46959;-76
2024/01/03 09:26:55;;;;;;;34.47;4.93;;;10.50;99.90;;;;;;4966589;28;39395;-75
2024/01/03 09:29:22;;;;;;;31.70;5.23;;;10.50;99.90;;;;;;4983968;28;38247;-75
2024/01/03 09:31:48;;;;;;;36.77;5.50;;;10.50;99.90;;;;;;4989573;28;40200;-75
2024/01/03 09:34:14;;;;;;;38.73;5.83;;;10.50;99.90;;;;;;5002434;28;38488;-75
2024/01/03 09:36:41;;;;;;;37.37;4.53;;;10.60;99.90;;;;;;4984801;28;39707;-75
2024/01/03 09:39:08;;;;;;;41.87;5.53;;;10.60;99.90;;;;;;4978298;28;38969;-76
2024/01/03 09:41:34;;;;;;;35.17;4.83;;;10.70;99.90;;;;;;4997132;28;39703;-75
2024/01/03 09:44:02;;;;;;;46.97;6.17;;;10.70;99.90;;;;;;4992380;28;39257;-75
2024/01/03 09:46:28;;;;;;;35.33;5.77;;;10.80;99.90;;;;;;4993207;28;48748;-75
2024/01/03 09:48:54;;;;;;;36.03;5.60;;;10.80;99.90;;;;;;4979332;28;38577;-75
2024/01/03 09:51:21;;;;;;;34.30;5.23;;;10.90;99.90;;;;;;4985372;28;39561;-75
2024/01/03 09:53:52;;;;;;;43.80;5.43;;;10.90;99.90;;;;;;4994387;28;39929;-75
2024/01/03 09:56:18;;;;;;;37.17;4.47;;;11.00;99.90;;;;;;4989131;28;39228;-75
2024/01/03 09:58:45;;;;;;;35.97;5.07;;;11.00;99.90;;;;;;4991995;28;38148;-75
2024/01/03 10:01:11;;;;;;;36.20;6.50;;;11.00;99.90;;;;;;4996909;28;39633;-76
2024/01/03 10:03:38;;;;;;;46.60;5.97;;;11.10;99.90;;;;;;4998414;28;39177;-75
2024/01/03 10:06:05;;;;;;;36.60;7.13;;;11.20;99.90;;;;;;4979718;28;39499;-75
2024/01/03 10:08:34;;;;;;;44.37;6.13;;;11.30;99.90;;;;;;5002803;28;38906;-75
2024/01/03 10:11:00;;;;;;;49.77;6.70;;;11.30;99.90;;;;;;4988430;28;38060;-76
2024/01/03 10:13:29;;;;;;;42.83;6.17;;;11.30;99.90;;;;;;4992648;28;39345;-76
2024/01/03 10:16:04;;;;;;;40.73;5.97;;;11.30;99.90;;;;;;4999600;28;39175;-76
2024/01/03 10:18:30;;;;;;;43.20;7.33;;;11.20;99.90;;;;;;5007125;28;48827;-76
2024/01/03 10:21:12;;;;;;;44.63;6.27;;;11.10;99.90;;;;;;4989913;28;38978;-76
2024/01/03 10:23:38;;;;;;;42.05;6.63;;;11.20;99.90;;;;;;4980787;28;47249;-76
2024/01/03 10:26:04;;;;;;;35.63;6.20;;;11.30;99.90;;;;;;4967877;28;39418;-76
2024/01/03 10:28:30;;;;;;;41.43;6.33;;;11.50;99.90;;;;;;4976255;28;36100;-76
2024/01/03 10:30:59;;;;;;;35.80;6.17;;;11.50;99.90;;;;;;5010802;28;39441;-77
2024/01/03 10:33:25;;;;;;;34.58;7.05;;;11.60;99.90;;;;;;4985671;28;37708;-76
2024/01/03 10:35:51;;;;;;;40.83;6.55;;;11.60;99.90;;;;;;4984397;28;38566;-76
2024/01/03 10:38:20;;;;;;;39.10;5.60;;;11.60;99.90;;;;;;5000769;28;35277;-76
2024/01/03 10:40:48;;;;;;;38.85;7.13;;;11.60;99.90;;;;;;4987743;28;39405;-76
2024/01/03 10:43:23;;;;;;;30.57;6.07;;;11.50;99.90;;;;;;4969143;28;39125;-75
2024/01/03 10:45:57;;;;;;;46.42;6.15;;;11.40;99.90;;;;;;4965863;28;40117;-76
2024/01/03 10:48:23;;;;;;;37.33;5.70;;;11.30;99.90;;;;;;4958169;28;36403;-76
2024/01/03 10:50:49;;;;;;;40.15;5.95;;;11.20;99.90;;;;;;4999143;28;39098;-76
2024/01/03 10:53:19;;;;;;;39.80;6.73;;;11.10;99.90;;;;;;4979223;28;39194;-76
2024/01/03 10:55:47;;;;;;;38.47;5.97;;;11.10;99.90;;;;;;4982704;28;39206;-76
2024/01/03 10:58:18;;;;;;;37.53;6.43;;;11.10;99.90;;;;;;4973526;28;38040;-76
2024/01/03 11:01:00;;;;;;;38.17;6.82;;;11.20;99.90;;;;;;4982510;28;38907;-75
2024/01/03 11:03:35;;;;;;;49.00;6.47;;;11.30;99.90;;;;;;4977761;28;39923;-76
2024/01/03 11:06:01;;;;;;;42.80;7.43;;;11.40;99.90;;;;;;5005787;28;38343;-76
2024/01/03 11:08:39;;;;;;;49.90;7.82;;;11.40;99.90;;;;;;4982182;28;36065;-76
2024/01/03 11:11:05;;;;;;;45.92;6.95;;;11.50;99.90;;;;;;5004822;28;40153;-76
2024/01/03 11:13:34;;;;;;;45.75;8.25;;;11.50;99.90;;;;;;4985240;28;39180;-77
2024/01/03 11:16:02;;;;;;;58.90;8.48;;;11.40;99.90;;;;;;4984668;28;37656;-77
2024/01/03 11:18:41;;;;;;;49.58;8.15;;;11.40;99.90;;;;;;4990251;28;48374;-77
2024/01/03 11:21:30;;;;;;;49.63;7.73;;;11.40;99.90;;;;;;4974807;28;37846;-77
2024/01/03 11:23:57;;;;;;;40.03;6.70;;;11.40;99.90;;;;;;5003015;28;39320;-79
2024/01/03 11:27:00;;;;;;;53.90;7.63;;;11.50;99.90;;;;;;5004448;28;38038;-80
2024/01/03 11:29:35;;;;;;;46.25;7.20;;;11.50;99.90;;;;;;5001676;28;38077;-76
2024/01/03 11:32:04;;;;;;;42.03;7.67;;;11.60;99.90;;;;;;4986347;28;40655;-77
2024/01/03 11:34:38;;;;;;;46.13;6.18;;;11.60;99.90;;;;;;4993780;28;48909;-78
2024/01/03 11:37:06;;;;;;;37.33;5.60;;;11.60;99.90;;;;;;5004133;28;37374;-77
2024/01/03 11:39:34;;;;;;;40.28;5.68;;;11.60;99.90;;;;;;4986872;28;38694;-76
2024/01/03 11:42:02;;;;;;;30.65;6.05;;;11.60;99.90;;;;;;5007071;28;38810;-77
2024/01/03 11:44:28;;;;;;;31.10;5.65;;;11.60;99.90;;;;;;4987450;28;47076;-79
2024/01/03 11:47:03;;;;;;;29.80;5.30;;;11.60;99.90;;;;;;5014488;28;39866;-77
2024/01/03 11:49:29;;;;;;;16.88;3.13;;;11.60;99.90;;;;;;4993369;28;48336;-76
2024/01/03 11:51:57;;;;;;;24.13;3.70;;;11.60;99.90;;;;;;4991373;28;38791;-76
2024/01/03 11:54:24;;;;;;;29.77;4.28;;;11.60;99.90;;;;;;4976701;28;39312;-76
2024/01/03 11:56:51;;;;;;;24.85;3.95;;;11.60;99.90;;;;;;4981241;28;39582;-76
2024/01/03 11:59:20;;;;;;;25.63;3.90;;;11.60;99.90;;;;;;4980779;28;38304;-76
2024/01/03 12:01:57;;;;;;;29.50;4.13;;;11.70;99.90;;;;;;4986115;28;38314;-76
2024/01/03 12:04:23;;;;;;;28.73;4.47;;;11.60;99.90;;;;;;4988870;28;39331;-76
2024/01/03 12:06:50;;;;;;;25.90;4.43;;;11.70;99.90;;;;;;4988964;28;38533;-76
2024/01/03 12:09:19;;;;;;;20.23;3.42;;;11.80;99.90;;;;;;4975450;28;38806;-75
2024/01/03 12:11:45;;;;;;;27.90;4.38;;;12.00;99.90;;;;;;4977656;28;38161;-75
2024/01/03 12:14:16;;;;;;;26.70;4.15;;;12.00;99.90;;;;;;4996413;28;38692;-75
2024/01/03 12:16:53;;;;;;;29.43;4.50;;;11.90;99.90;;;;;;4975855;28;38915;-76
2024/01/03 12:19:27;;;;;;;37.72;5.55;;;11.80;99.90;;;;;;4994730;28;37949;-76
2024/01/03 12:22:01;;;;;;;45.75;6.22;;;11.70;99.90;;;;;;4983680;28;40231;-76
2024/01/03 12:24:38;;;;;;;42.47;7.57;;;11.50;99.90;;;;;;4997304;28;48826;-76
2024/01/03 12:27:05;;;;;;;34.83;5.27;;;11.30;99.90;;;;;;4974781;28;40148;-75
2024/01/03 12:29:33;;;;;;;38.17;5.75;;;11.10;99.90;;;;;;5003670;28;36915;-76
2024/01/03 12:32:14;;;;;;;41.43;5.43;;;11.00;99.90;;;;;;4989099;28;39629;-76
2024/01/03 12:34:41;;;;;;;34.60;6.23;;;11.10;99.90;;;;;;4985973;28;48665;-76
2024/01/03 12:37:07;;;;;;;32.70;5.32;;;11.20;99.90;;;;;;4970486;28;38240;-76
2024/01/03 12:39:35;;;;;;;28.58;5.25;;;11.20;99.90;;;;;;4972862;28;36513;-75